sensor_id;sensor_type;location;lat;lon;timestamp;pressure;altitude;pressure_sealevel;temperature;humidity
10718;BME280;13513;42.700;23.124;2023-04-06T00:00:40;92662.13;;;-0.18;100.00
10718;BME280;13513;42.700;23.124;2023-04-06T00:03:11;92661.05;;;-0.19;100.00
10718;BME280;13513;42.700;23.124;2023-04-06T00:05:42;92656.27;;;-0.16;100.00
10718;BME280;13513;42.700;23.124;2023-04-06T00:08:13;92651.67;;;-0.14;100.00
10718;BME280;13513;42.700;23.124;2023-04-06T00:10:44;92642.73;;;-0.11;100.00
10718;BME280;13513;42.700;23.124;2023-04-06T00:13:15;92641.66;;;-0.06;100.00
10718;BME280;13513;42.700;23.124;2023-04-06T00:15:45;92639.09;;;0.00;100.00
10718;BME280;13513;42.700;23.124;2023-04-06T00:18:16;92641.62;;;0.04;100.00
10718;BME280;13513;42.700;23.124;2023-04-06T00:20:47;92634.94;;;0.06;100.00
10718;BME280;13513;42.700;23.124;2023-04-06T00:23:18;92632.48;;;0.15;99.54
10718;BME280;13513;42.700;23.124;2023-04-06T00:25:49;92628.73;;;0.18;100.00
10718;BME280;13513;42.700;23.124;2023-04-06T00:28:20;92626.91;;;0.18;99.73
10718;BME280;13513;42.700;23.124;2023-04-06T00:30:51;92625.84;;;0.06;100.00
10718;BME280;13513;42.700;23.124;2023-04-06T00:33:23;92614.66;;;0.23;99.55
10718;BME280;13513;42.700;23.124;2023-04-06T00:35:54;92611.62;;;0.36;99.33
10718;BME280;13513;42.700;23.124;2023-04-06T00:38:26;92614.80;;;0.32;97.97
10718;BME280;13513;42.700;23.124;2023-04-06T00:40:56;92608.76;;;0.42;97.40
10718;BME280;13513;42.700;23.124;2023-04-06T00:43:27;92609.09;;;0.56;96.62
10718;BME280;13513;42.700;23.124;2023-04-06T00:45:58;92612.80;;;0.57;95.73
10718;BME280;13513;42.700;23.124;2023-04-06T00:48:28;92614.53;;;0.61;95.65
10718;BME280;13513;42.700;23.124;2023-04-06T00:51:00;92609.44;;;0.63;95.95
10718;BME280;13513;42.700;23.124;2023-04-06T00:53:30;92607.57;;;0.68;94.08
10718;BME280;13513;42.700;23.124;2023-04-06T00:56:01;92606.67;;;0.71;94.43
10718;BME280;13513;42.700;23.124;2023-04-06T00:58:31;92601.86;;;0.75;94.92
10718;BME280;13513;42.700;23.124;2023-04-06T01:01:02;92605.09;;;0.77;95.83
10718;BME280;13513;42.700;23.124;2023-04-06T01:03:33;92605.59;;;0.83;96.21
10718;BME280;13513;42.700;23.124;2023-04-06T01:06:04;92609.39;;;0.87;96.82
10718;BME280;13513;42.700;23.124;2023-04-06T01:08:35;92608.53;;;0.97;96.71
10718;BME280;13513;42.700;23.124;2023-04-06T01:11:07;92600.87;;;1.19;96.77
10718;BME280;13513;42.700;23.124;2023-04-06T01:13:38;92597.70;;;1.30;93.93
10718;BME280;13513;42.700;23.124;2023-04-06T01:16:08;92601.59;;;1.30;93.22
10718;BME280;13513;42.700;23.124;2023-04-06T01:18:39;92595.29;;;1.35;93.38
10718;BME280;13513;42.700;23.124;2023-04-06T01:21:11;92590.90;;;1.35;94.18
10718;BME280;13513;42.700;23.124;2023-04-06T01:23:45;92597.38;;;1.22;94.41
10718;BME280;13513;42.700;23.124;2023-04-06T01:26:15;92588.84;;;1.11;94.44
10718;BME280;13513;42.700;23.124;2023-04-06T01:28:46;92585.27;;;1.19;95.06
10718;BME280;13513;42.700;23.124;2023-04-06T01:31:17;92582.58;;;1.16;94.98
10718;BME280;13513;42.700;23.124;2023-04-06T01:33:48;92580.45;;;1.03;93.75
10718;BME280;13513;42.700;23.124;2023-04-06T01:36:20;92578.34;;;1.02;94.44
10718;BME280;13513;42.700;23.124;2023-04-06T01:38:51;92578.43;;;0.92;94.34
10718;BME280;13513;42.700;23.124;2023-04-06T01:41:22;92586.57;;;1.12;93.63
10718;BME280;13513;42.700;23.124;2023-04-06T01:43:53;92587.68;;;1.27;92.98
10718;BME280;13513;42.700;23.124;2023-04-06T01:46:24;92577.86;;;1.16;93.68
10718;BME280;13513;42.700;23.124;2023-04-06T01:48:56;92582.25;;;1.15;93.52
10718;BME280;13513;42.700;23.124;2023-04-06T01:51:27;92579.84;;;1.01;94.20
10718;BME280;13513;42.700;23.124;2023-04-06T01:53:56;92576.84;;;1.10;94.69
10718;BME280;13513;42.700;23.124;2023-04-06T01:56:28;92584.06;;;1.15;93.69
10718;BME280;13513;42.700;23.124;2023-04-06T01:58:59;92586.15;;;1.09;94.36
10718;BME280;13513;42.700;23.124;2023-04-06T02:01:31;92578.97;;;1.11;94.33
10718;BME280;13513;42.700;23.124;2023-04-06T02:04:01;92571.73;;;0.93;94.38
10718;BME280;13513;42.700;23.124;2023-04-06T02:06:32;92569.91;;;0.94;94.30
10718;BME280;13513;42.700;23.124;2023-04-06T02:09:03;92566.64;;;1.09;93.10
10718;BME280;13513;42.700;23.124;2023-04-06T02:11:34;92565.44;;;0.98;92.95
10718;BME280;13513;42.700;23.124;2023-04-06T02:14:05;92563.45;;;1.07;94.57
10718;BME280;13513;42.700;23.124;2023-04-06T02:16:36;92562.34;;;1.05;94.56
10718;BME280;13513;42.700;23.124;2023-04-06T02:19:07;92561.63;;;0.94;93.07
10718;BME280;13513;42.700;23.124;2023-04-06T02:21:38;92564.75;;;1.07;92.70
10718;BME280;13513;42.700;23.124;2023-04-06T02:24:09;92568.75;;;1.03;93.09
10718;BME280;13513;42.700;23.124;2023-04-06T02:26:39;92562.41;;;0.88;94.41
10718;BME280;13513;42.700;23.124;2023-04-06T02:29:10;92565.82;;;0.95;93.90
10718;BME280;13513;42.700;23.124;2023-04-06T02:31:40;92566.73;;;1.05;94.01
10718;BME280;13513;42.700;23.124;2023-04-06T02:34:11;92565.14;;;1.04;93.85
10718;BME280;13513;42.700;23.124;2023-04-06T02:36:47;92571.65;;;1.17;92.96
10718;BME280;13513;42.700;23.124;2023-04-06T02:39:14;92571.94;;;1.11;93.00
10718;BME280;13513;42.700;23.124;2023-04-06T02:41:44;92571.94;;;1.05;95.02
10718;BME280;13513;42.700;23.124;2023-04-06T02:44:14;92573.14;;;1.15;93.18
10718;BME280;13513;42.700;23.124;2023-04-06T02:46:47;92574.14;;;1.01;94.08
10718;BME280;13513;42.700;23.124;2023-04-06T02:49:19;92568.75;;;1.03;93.64
10718;BME280;13513;42.700;23.124;2023-04-06T02:51:50;92577.76;;;1.07;94.77
10718;BME280;13513;42.700;23.124;2023-04-06T02:54:21;92565.53;;;1.07;95.47
10718;BME280;13513;42.700;23.124;2023-04-06T02:56:52;92574.25;;;1.10;95.06
10718;BME280;13513;42.700;23.124;2023-04-06T02:59:22;92570.05;;;1.16;95.00
10718;BME280;13513;42.700;23.124;2023-04-06T03:01:53;92568.66;;;1.13;94.21
10718;BME280;13513;42.700;23.124;2023-04-06T03:04:23;92567.55;;;1.05;94.50
10718;BME280;13513;42.700;23.124;2023-04-06T03:06:55;92564.95;;;1.05;95.17
10718;BME280;13513;42.700;23.124;2023-04-06T03:09:28;92562.94;;;1.07;95.53
10718;BME280;13513;42.700;23.124;2023-04-06T03:11:59;92568.03;;;0.98;95.30
10718;BME280;13513;42.700;23.124;2023-04-06T03:14:31;92568.94;;;0.95;95.89
10718;BME280;13513;42.700;23.124;2023-04-06T03:17:03;92553.72;;;0.85;95.65
10718;BME280;13513;42.700;23.124;2023-04-06T03:19:33;92559.03;;;0.94;95.69
10718;BME280;13513;42.700;23.124;2023-04-06T03:22:04;92561.01;;;0.92;95.30
10718;BME280;13513;42.700;23.124;2023-04-06T03:24:35;92557.62;;;0.92;93.62
10718;BME280;13513;42.700;23.124;2023-04-06T03:27:06;92563.59;;;0.79;94.92
10718;BME280;13513;42.700;23.124;2023-04-06T03:29:42;92565.08;;;0.71;95.18
10718;BME280;13513;42.700;23.124;2023-04-06T03:32:10;92556.91;;;0.81;96.24
10718;BME280;13513;42.700;23.124;2023-04-06T03:34:40;92556.41;;;0.81;96.59
10718;BME280;13513;42.700;23.124;2023-04-06T03:37:12;92548.48;;;0.79;96.59
10718;BME280;13513;42.700;23.124;2023-04-06T03:39:46;92553.38;;;0.71;97.27
10718;BME280;13513;42.700;23.124;2023-04-06T03:42:17;92558.38;;;0.66;97.46
10718;BME280;13513;42.700;23.124;2023-04-06T03:44:47;92554.48;;;0.66;98.31
10718;BME280;13513;42.700;23.124;2023-04-06T03:47:18;92553.66;;;0.66;97.91
10718;BME280;13513;42.700;23.124;2023-04-06T03:49:49;92553.46;;;0.61;97.75
10718;BME280;13513;42.700;23.124;2023-04-06T03:52:25;92545.25;;;0.64;99.34
10718;BME280;13513;42.700;23.124;2023-04-06T03:55:01;92549.13;;;0.57;99.54
10718;BME280;13513;42.700;23.124;2023-04-06T03:57:33;92554.67;;;0.65;99.49
10718;BME280;13513;42.700;23.124;2023-04-06T04:00:09;92546.59;;;0.70;98.53
10718;BME280;13513;42.700;23.124;2023-04-06T04:02:36;92549.28;;;0.73;98.94
10718;BME280;13513;42.700;23.124;2023-04-06T04:05:09;92548.67;;;0.71;98.28
10718;BME280;13513;42.700;23.124;2023-04-06T04:07:40;92546.59;;;0.70;98.33
10718;BME280;13513;42.700;23.124;2023-04-06T04:10:14;92548.29;;;0.80;98.28
10718;BME280;13513;42.700;23.124;2023-04-06T04:12:45;92550.97;;;0.70;98.61
10718;BME280;13513;42.700;23.124;2023-04-06T04:15:15;92547.70;;;0.72;98.49
10718;BME280;13513;42.700;23.124;2023-04-06T04:17:46;92544.68;;;0.75;97.19
10718;BME280;13513;42.700;23.124;2023-04-06T04:20:17;92553.68;;;0.79;98.07
10718;BME280;13513;42.700;23.124;2023-04-06T04:22:46;92557.81;;;0.84;98.59
10718;BME280;13513;42.700;23.124;2023-04-06T04:25:18;92551.42;;;0.93;98.80
10718;BME280;13513;42.700;23.124;2023-04-06T04:27:49;92554.64;;;0.95;96.55
10718;BME280;13513;42.700;23.124;2023-04-06T04:30:20;92553.83;;;1.01;94.68
10718;BME280;13513;42.700;23.124;2023-04-06T04:32:51;92556.42;;;0.88;95.89
10718;BME280;13513;42.700;23.124;2023-04-06T04:35:24;92557.34;;;1.04;96.03
10718;BME280;13513;42.700;23.124;2023-04-06T04:37:57;92560.56;;;1.12;95.96
10718;BME280;13513;42.700;23.124;2023-04-06T04:40:28;92562.25;;;1.22;94.87
10718;BME280;13513;42.700;23.124;2023-04-06T04:42:59;92553.34;;;1.21;95.01
10718;BME280;13513;42.700;23.124;2023-04-06T04:45:30;92564.56;;;1.28;94.27
10718;BME280;13513;42.700;23.124;2023-04-06T04:48:01;92561.77;;;1.23;92.85
10718;BME280;13513;42.700;23.124;2023-04-06T04:50:32;92550.96;;;1.32;93.30
10718;BME280;13513;42.700;23.124;2023-04-06T04:53:03;92562.56;;;1.36;92.79
10718;BME280;13513;42.700;23.124;2023-04-06T04:55:35;92558.95;;;1.44;93.07
10718;BME280;13513;42.700;23.124;2023-04-06T04:58:06;92551.56;;;1.47;93.22
10718;BME280;13513;42.700;23.124;2023-04-06T05:00:37;92559.36;;;1.54;92.92
10718;BME280;13513;42.700;23.124;2023-04-06T05:03:08;92553.55;;;1.65;92.49
10718;BME280;13513;42.700;23.124;2023-04-06T05:05:40;92549.63;;;1.71;92.65
10718;BME280;13513;42.700;23.124;2023-04-06T05:08:11;92543.81;;;1.69;91.16
10718;BME280;13513;42.700;23.124;2023-04-06T05:10:42;92549.52;;;1.75;90.08
10718;BME280;13513;42.700;23.124;2023-04-06T05:13:12;92545.72;;;1.71;92.45
10718;BME280;13513;42.700;23.124;2023-04-06T05:15:41;92553.21;;;1.83;90.42
10718;BME280;13513;42.700;23.124;2023-04-06T05:18:13;92550.84;;;2.10;90.98
10718;BME280;13513;42.700;23.124;2023-04-06T05:20:44;92549.75;;;2.37;87.52
10718;BME280;13513;42.700;23.124;2023-04-06T05:23:15;92545.17;;;2.55;87.29
10718;BME280;13513;42.700;23.124;2023-04-06T05:25:45;92545.38;;;2.75;87.31
10718;BME280;13513;42.700;23.124;2023-04-06T05:28:16;92545.30;;;3.19;85.05
10718;BME280;13513;42.700;23.124;2023-04-06T05:30:47;92541.20;;;3.45;82.15
10718;BME280;13513;42.700;23.124;2023-04-06T05:33:18;92537.48;;;3.68;81.22
10718;BME280;13513;42.700;23.124;2023-04-06T05:35:49;92539.62;;;3.87;79.71
10718;BME280;13513;42.700;23.124;2023-04-06T05:38:20;92532.77;;;4.01;78.86
10718;BME280;13513;42.700;23.124;2023-04-06T05:40:51;92536.23;;;4.04;77.14
10718;BME280;13513;42.700;23.124;2023-04-06T05:43:21;92532.56;;;4.30;76.26
10718;BME280;13513;42.700;23.124;2023-04-06T05:45:51;92534.52;;;4.25;74.39
10718;BME280;13513;42.700;23.124;2023-04-06T05:48:22;92537.06;;;4.23;73.81
10718;BME280;13513;42.700;23.124;2023-04-06T05:50:53;92535.31;;;3.99;76.32
10718;BME280;13513;42.700;23.124;2023-04-06T05:53:24;92530.86;;;4.08;75.14
10718;BME280;13513;42.700;23.124;2023-04-06T05:55:55;92531.16;;;4.27;78.81
10718;BME280;13513;42.700;23.124;2023-04-06T05:58:26;92532.77;;;4.56;78.08
10718;BME280;13513;42.700;23.124;2023-04-06T06:01:02;92534.48;;;4.62;72.98
10718;BME280;13513;42.700;23.124;2023-04-06T06:03:33;92535.73;;;4.59;74.22
10718;BME280;13513;42.700;23.124;2023-04-06T06:06:04;92534.16;;;4.31;73.96
10718;BME280;13513;42.700;23.124;2023-04-06T06:08:35;92528.03;;;3.92;74.08
10718;BME280;13513;42.700;23.124;2023-04-06T06:11:06;92531.88;;;3.98;75.04
10718;BME280;13513;42.700;23.124;2023-04-06T06:13:37;92530.79;;;3.88;77.17
10718;BME280;13513;42.700;23.124;2023-04-06T06:16:08;92528.11;;;3.85;77.85
10718;BME280;13513;42.700;23.124;2023-04-06T06:18:38;92527.01;;;3.84;75.63
10718;BME280;13513;42.700;23.124;2023-04-06T06:21:09;92528.81;;;3.92;76.63
10718;BME280;13513;42.700;23.124;2023-04-06T06:23:43;92526.53;;;4.20;74.64
10718;BME280;13513;42.700;23.124;2023-04-06T06:26:14;92528.12;;;4.30;72.55
10718;BME280;13513;42.700;23.124;2023-04-06T06:28:45;92525.14;;;4.36;75.55
10718;BME280;13513;42.700;23.124;2023-04-06T06:31:17;92525.20;;;4.57;72.33
10718;BME280;13513;42.700;23.124;2023-04-06T06:33:48;92528.40;;;4.31;73.02
10718;BME280;13513;42.700;23.124;2023-04-06T06:36:19;92526.17;;;4.26;71.59
10718;BME280;13513;42.700;23.124;2023-04-06T06:38:50;92530.08;;;4.53;72.60
10718;BME280;13513;42.700;23.124;2023-04-06T06:41:22;92530.48;;;4.77;73.07
10718;BME280;13513;42.700;23.124;2023-04-06T06:43:53;92529.86;;;4.93;71.10
10718;BME280;13513;42.700;23.124;2023-04-06T06:46:23;92528.14;;;5.08;71.25
10718;BME280;13513;42.700;23.124;2023-04-06T06:48:54;92531.67;;;5.02;68.51
10718;BME280;13513;42.700;23.124;2023-04-06T06:51:25;92532.19;;;5.22;68.89
10718;BME280;13513;42.700;23.124;2023-04-06T06:53:56;92536.98;;;5.16;69.76
10718;BME280;13513;42.700;23.124;2023-04-06T06:56:27;92531.81;;;5.18;66.69
10718;BME280;13513;42.700;23.124;2023-04-06T06:58:58;92541.20;;;5.37;67.76
10718;BME280;13513;42.700;23.124;2023-04-06T07:01:28;92543.44;;;5.22;65.91
10718;BME280;13513;42.700;23.124;2023-04-06T07:04:00;92543.44;;;5.22;65.91
10718;BME280;13513;42.700;23.124;2023-04-06T07:06:31;92546.06;;;5.43;64.77
10718;BME280;13513;42.700;23.124;2023-04-06T07:09:02;92542.50;;;5.58;64.87
10718;BME280;13513;42.700;23.124;2023-04-06T07:11:34;92537.73;;;5.78;65.10
10718;BME280;13513;42.700;23.124;2023-04-06T07:14:09;92537.24;;;5.67;64.76
10718;BME280;13513;42.700;23.124;2023-04-06T07:16:40;92543.76;;;5.55;63.84
10718;BME280;13513;42.700;23.124;2023-04-06T07:19:11;92543.76;;;5.55;63.84
10718;BME280;13513;42.700;23.124;2023-04-06T07:21:41;92533.66;;;5.50;63.75
10718;BME280;13513;42.700;23.124;2023-04-06T07:24:11;92543.50;;;5.45;65.06
10718;BME280;13513;42.700;23.124;2023-04-06T07:26:43;92537.70;;;5.23;67.84
10718;BME280;13513;42.700;23.124;2023-04-06T07:29:13;92538.30;;;5.16;68.59
10718;BME280;13513;42.700;23.124;2023-04-06T07:31:45;92536.22;;;5.06;66.84
10718;BME280;13513;42.700;23.124;2023-04-06T07:34:15;92538.21;;;5.02;67.87
10718;BME280;13513;42.700;23.124;2023-04-06T07:36:46;92543.91;;;4.90;67.63
10718;BME280;13513;42.700;23.124;2023-04-06T07:39:17;92540.70;;;4.88;67.99
10718;BME280;13513;42.700;23.124;2023-04-06T07:41:48;92541.48;;;4.41;68.25
10718;BME280;13513;42.700;23.124;2023-04-06T07:44:18;92544.91;;;4.23;70.65
10718;BME280;13513;42.700;23.124;2023-04-06T07:46:51;92541.38;;;3.93;70.78
10718;BME280;13513;42.700;23.124;2023-04-06T07:49:22;92542.77;;;4.04;73.61
10718;BME280;13513;42.700;23.124;2023-04-06T07:51:53;92543.88;;;4.15;73.33
10718;BME280;13513;42.700;23.124;2023-04-06T07:54:24;92545.77;;;4.08;74.35
10718;BME280;13513;42.700;23.124;2023-04-06T07:56:56;92541.69;;;4.21;74.19
10718;BME280;13513;42.700;23.124;2023-04-06T07:59:27;92547.59;;;4.44;72.99
10718;BME280;13513;42.700;23.124;2023-04-06T08:01:57;92538.79;;;4.65;72.28
10718;BME280;13513;42.700;23.124;2023-04-06T08:04:29;92546.00;;;4.24;72.38
10718;BME280;13513;42.700;23.124;2023-04-06T08:07:00;92539.23;;;4.53;71.09
10718;BME280;13513;42.700;23.124;2023-04-06T08:09:31;92542.25;;;4.77;69.19
10718;BME280;13513;42.700;23.124;2023-04-06T08:12:02;92538.45;;;5.12;68.50
10718;BME280;13513;42.700;23.124;2023-04-06T08:14:33;92537.69;;;5.02;67.31
10718;BME280;13513;42.700;23.124;2023-04-06T08:17:04;92534.38;;;5.36;64.39
10718;BME280;13513;42.700;23.124;2023-04-06T08:19:34;92545.52;;;5.32;65.16
10718;BME280;13513;42.700;23.124;2023-04-06T08:22:04;92542.19;;;5.45;64.68
10718;BME280;13513;42.700;23.124;2023-04-06T08:24:37;92542.19;;;5.45;64.68
10718;BME280;13513;42.700;23.124;2023-04-06T08:27:07;92540.97;;;5.59;63.67
10718;BME280;13513;42.700;23.124;2023-04-06T08:29:38;92543.73;;;5.76;63.20
10718;BME280;13513;42.700;23.124;2023-04-06T08:32:08;92542.70;;;5.97;62.10
10718;BME280;13513;42.700;23.124;2023-04-06T08:34:39;92544.91;;;5.91;61.49
10718;BME280;13513;42.700;23.124;2023-04-06T08:37:09;92547.89;;;6.18;59.50
10718;BME280;13513;42.700;23.124;2023-04-06T08:39:40;92548.18;;;6.30;59.89
10718;BME280;13513;42.700;23.124;2023-04-06T08:42:14;92552.05;;;6.65;59.06
10718;BME280;13513;42.700;23.124;2023-04-06T08:44:44;92551.09;;;6.82;58.49
10718;BME280;13513;42.700;23.124;2023-04-06T08:47:14;92552.62;;;6.92;57.46
10718;BME280;13513;42.700;23.124;2023-04-06T08:49:46;92543.27;;;6.59;58.12
10718;BME280;13513;42.700;23.124;2023-04-06T08:52:21;92553.95;;;6.55;58.68
10718;BME280;13513;42.700;23.124;2023-04-06T08:54:52;92554.58;;;6.48;58.04
10718;BME280;13513;42.700;23.124;2023-04-06T08:57:24;92548.47;;;6.08;60.41
10718;BME280;13513;42.700;23.124;2023-04-06T08:59:58;92544.45;;;5.94;59.76
10718;BME280;13513;42.700;23.124;2023-04-06T09:02:29;92546.52;;;5.72;61.19
10718;BME280;13513;42.700;23.124;2023-04-06T09:05:01;92546.00;;;5.40;62.54
10718;BME280;13513;42.700;23.124;2023-04-06T09:07:31;92547.09;;;5.21;64.14
10718;BME280;13513;42.700;23.124;2023-04-06T09:10:02;92549.88;;;5.38;63.98
10718;BME280;13513;42.700;23.124;2023-04-06T09:12:34;92547.19;;;5.56;63.33
10718;BME280;13513;42.700;23.124;2023-04-06T09:15:05;92544.60;;;5.79;63.59
10718;BME280;13513;42.700;23.124;2023-04-06T09:17:37;92538.94;;;5.73;62.25
10718;BME280;13513;42.700;23.124;2023-04-06T09:20:08;92543.15;;;5.62;61.03
10718;BME280;13513;42.700;23.124;2023-04-06T09:22:40;92538.30;;;5.68;61.28
10718;BME280;13513;42.700;23.124;2023-04-06T09:25:17;92538.35;;;5.91;62.36
10718;BME280;13513;42.700;23.124;2023-04-06T09:27:41;92540.53;;;6.17;60.29
10718;BME280;13513;42.700;23.124;2023-04-06T09:30:14;92540.53;;;6.17;60.29
10718;BME280;13513;42.700;23.124;2023-04-06T09:32:49;92534.62;;;6.36;58.01
10718;BME280;13513;42.700;23.124;2023-04-06T09:35:21;92536.70;;;6.34;57.72
10718;BME280;13513;42.700;23.124;2023-04-06T09:37:53;92537.48;;;6.46;59.61
10718;BME280;13513;42.700;23.124;2023-04-06T09:40:23;92536.09;;;6.18;58.75
10718;BME280;13513;42.700;23.124;2023-04-06T09:42:53;92540.58;;;6.20;57.83
10718;BME280;13513;42.700;23.124;2023-04-06T09:45:24;92540.25;;;6.16;56.52
10718;BME280;13513;42.700;23.124;2023-04-06T09:47:56;92534.95;;;6.51;57.34
10718;BME280;13513;42.700;23.124;2023-04-06T09:50:28;92535.45;;;6.62;57.42
10718;BME280;13513;42.700;23.124;2023-04-06T09:53:00;92536.26;;;6.76;54.81
10718;BME280;13513;42.700;23.124;2023-04-06T09:55:35;92546.41;;;7.40;54.39
10718;BME280;13513;42.700;23.124;2023-04-06T09:58:13;92526.97;;;7.55;54.58
10718;BME280;13513;42.700;23.124;2023-04-06T10:00:57;92524.42;;;8.46;52.96
10718;BME280;13513;42.700;23.124;2023-04-06T10:06:05;92523.95;;;9.13;48.62
10718;BME280;13513;42.700;23.124;2023-04-06T10:08:39;92531.91;;;8.54;48.43
10718;BME280;13513;42.700;23.124;2023-04-06T10:11:10;92522.61;;;9.11;49.10
10718;BME280;13513;42.700;23.124;2023-04-06T10:13:41;92524.66;;;9.28;47.94
10718;BME280;13513;42.700;23.124;2023-04-06T10:16:15;92527.94;;;9.40;46.92
10718;BME280;13513;42.700;23.124;2023-04-06T10:18:49;92528.49;;;9.18;47.56
10718;BME280;13513;42.700;23.124;2023-04-06T10:21:21;92524.52;;;9.15;46.69
10718;BME280;13513;42.700;23.124;2023-04-06T10:23:57;92522.59;;;9.08;46.67
10718;BME280;13513;42.700;23.124;2023-04-06T10:26:28;92522.53;;;9.27;47.25
10718;BME280;13513;42.700;23.124;2023-04-06T10:29:02;92512.97;;;9.45;46.08
10718;BME280;13513;42.700;23.124;2023-04-06T10:31:31;92510.66;;;9.54;45.47
10718;BME280;13513;42.700;23.124;2023-04-06T10:34:03;92508.58;;;9.56;45.97
10718;BME280;13513;42.700;23.124;2023-04-06T10:36:35;92501.55;;;9.66;46.88
10718;BME280;13513;42.700;23.124;2023-04-06T10:39:06;92499.06;;;9.52;45.25
10718;BME280;13513;42.700;23.124;2023-04-06T10:41:45;92494.78;;;9.46;46.74
10718;BME280;13513;42.700;23.124;2023-04-06T10:44:25;92497.10;;;10.01;45.73
10718;BME280;13513;42.700;23.124;2023-04-06T10:46:59;92488.80;;;10.21;45.73
10718;BME280;13513;42.700;23.124;2023-04-06T10:49:30;92483.23;;;10.13;44.60
10718;BME280;13513;42.700;23.124;2023-04-06T10:52:01;92481.72;;;9.59;45.64
10718;BME280;13513;42.700;23.124;2023-04-06T10:54:32;92485.13;;;9.59;45.13
10718;BME280;13513;42.700;23.124;2023-04-06T10:57:03;92486.33;;;9.76;45.23
10718;BME280;13513;42.700;23.124;2023-04-06T10:59:34;92487.31;;;10.33;45.60
10718;BME280;13513;42.700;23.124;2023-04-06T11:02:06;92480.95;;;9.97;46.24
10718;BME280;13513;42.700;23.124;2023-04-06T11:04:37;92483.67;;;10.05;45.83
10718;BME280;13513;42.700;23.124;2023-04-06T11:07:07;92480.45;;;9.98;44.66
10718;BME280;13513;42.700;23.124;2023-04-06T11:09:40;92482.27;;;9.95;45.09
10718;BME280;13513;42.700;23.124;2023-04-06T11:12:22;92482.94;;;10.12;44.07
10718;BME280;13513;42.700;23.124;2023-04-06T11:14:52;92471.53;;;9.70;44.78
10718;BME280;13513;42.700;23.124;2023-04-06T11:17:15;92473.24;;;9.57;45.56
10718;BME280;13513;42.700;23.124;2023-04-06T11:19:46;92468.20;;;9.00;46.31
10718;BME280;13513;42.700;23.124;2023-04-06T11:22:17;92466.44;;;9.32;47.12
10718;BME280;13513;42.700;23.124;2023-04-06T11:24:49;92463.89;;;9.73;44.73
10718;BME280;13513;42.700;23.124;2023-04-06T11:27:21;92468.25;;;9.92;44.54
10718;BME280;13513;42.700;23.124;2023-04-06T11:29:52;92461.01;;;9.75;44.63
10718;BME280;13513;42.700;23.124;2023-04-06T11:32:23;92462.86;;;9.43;44.85
10718;BME280;13513;42.700;23.124;2023-04-06T11:34:54;92460.08;;;9.28;45.13
10718;BME280;13513;42.700;23.124;2023-04-06T11:37:25;92465.03;;;8.98;46.68
10718;BME280;13513;42.700;23.124;2023-04-06T11:39:56;92464.79;;;8.99;46.00
10718;BME280;13513;42.700;23.124;2023-04-06T11:42:28;92468.42;;;8.96;45.72
10718;BME280;13513;42.700;23.124;2023-04-06T11:45:00;92465.13;;;8.84;46.50
10718;BME280;13513;42.700;23.124;2023-04-06T11:47:38;92457.98;;;8.79;46.53
10718;BME280;13513;42.700;23.124;2023-04-06T11:50:13;92459.05;;;8.59;47.12
10718;BME280;13513;42.700;23.124;2023-04-06T11:52:45;92452.81;;;8.44;47.45
10718;BME280;13513;42.700;23.124;2023-04-06T11:55:18;92455.31;;;8.33;48.09
10718;BME280;13513;42.700;23.124;2023-04-06T11:57:49;92450.68;;;8.21;48.85
10718;BME280;13513;42.700;23.124;2023-04-06T12:00:20;92455.93;;;8.41;47.95
10718;BME280;13513;42.700;23.124;2023-04-06T12:02:50;92443.33;;;8.43;47.46
10718;BME280;13513;42.700;23.124;2023-04-06T12:05:21;92443.33;;;8.43;47.65
10718;BME280;13513;42.700;23.124;2023-04-06T12:07:52;92443.70;;;8.54;47.46
10718;BME280;13513;42.700;23.124;2023-04-06T12:10:22;92448.03;;;8.62;46.74
10718;BME280;13513;42.700;23.124;2023-04-06T12:12:53;92443.59;;;8.89;47.79
10718;BME280;13513;42.700;23.124;2023-04-06T12:15:24;92442.39;;;8.99;47.03
10718;BME280;13513;42.700;23.124;2023-04-06T12:17:57;92439.33;;;9.10;46.54
10718;BME280;13513;42.700;23.124;2023-04-06T12:20:28;92443.97;;;9.27;45.22
10718;BME280;13513;42.700;23.124;2023-04-06T12:22:59;92433.47;;;9.29;46.07
10718;BME280;13513;42.700;23.124;2023-04-06T12:25:30;92439.40;;;8.91;45.96
10718;BME280;13513;42.700;23.124;2023-04-06T12:28:00;92442.25;;;8.63;46.75
10718;BME280;13513;42.700;23.124;2023-04-06T12:30:30;92443.14;;;8.49;46.19
10718;BME280;13513;42.700;23.124;2023-04-06T12:33:02;92440.04;;;8.76;46.75
10718;BME280;13513;42.700;23.124;2023-04-06T12:35:36;92438.52;;;8.59;47.98
10718;BME280;13513;42.700;23.124;2023-04-06T12:38:07;92446.31;;;8.51;47.04
10718;BME280;13513;42.700;23.124;2023-04-06T12:40:38;92439.23;;;8.13;45.58
10718;BME280;13513;42.700;23.124;2023-04-06T12:43:09;92444.52;;;7.97;46.37
10718;BME280;13513;42.700;23.124;2023-04-06T12:45:41;92435.22;;;8.25;47.28
10718;BME280;13513;42.700;23.124;2023-04-06T12:48:11;92434.84;;;8.38;46.49
10718;BME280;13513;42.700;23.124;2023-04-06T12:50:42;92431.16;;;8.39;45.02
10718;BME280;13513;42.700;23.124;2023-04-06T12:53:13;92433.98;;;8.33;46.75
10718;BME280;13513;42.700;23.124;2023-04-06T12:55:44;92435.25;;;8.28;45.41
10718;BME280;13513;42.700;23.124;2023-04-06T12:58:14;92425.87;;;8.37;46.44
10718;BME280;13513;42.700;23.124;2023-04-06T13:00:44;92430.47;;;8.24;46.23
10718;BME280;13513;42.700;23.124;2023-04-06T13:03:14;92420.69;;;8.44;44.79
10718;BME280;13513;42.700;23.124;2023-04-06T13:05:46;92416.66;;;8.37;45.73
10718;BME280;13513;42.700;23.124;2023-04-06T13:08:17;92415.77;;;8.50;46.34
10718;BME280;13513;42.700;23.124;2023-04-06T13:10:49;92411.70;;;8.62;45.63
10718;BME280;13513;42.700;23.124;2023-04-06T13:13:22;92421.06;;;8.53;44.34
10718;BME280;13513;42.700;23.124;2023-04-06T13:15:53;92425.63;;;8.19;44.60
10718;BME280;13513;42.700;23.124;2023-04-06T13:18:24;92422.63;;;8.13;45.52
10718;BME280;13513;42.700;23.124;2023-04-06T13:20:55;92420.37;;;8.00;45.17
10718;BME280;13513;42.700;23.124;2023-04-06T13:23:25;92420.16;;;7.85;45.44